createdAt,value
2022-10-18T00:01:51.888Z,78.89
2022-10-18T00:04:54.847Z,78.91
2022-10-18T00:07:57.670Z,78.50
2022-10-18T00:11:00.389Z,78.84
2022-10-18T00:14:03.214Z,79.45
2022-10-18T00:17:06.029Z,79.92
2022-10-18T00:20:11.660Z,80.07
2022-10-18T00:23:14.499Z,80.12
2022-10-18T00:26:20.976Z,79.67
2022-10-18T00:29:24.104Z,79.38
2022-10-18T00:32:27.708Z,79.05
2022-10-18T00:35:30.664Z,78.78
2022-10-18T00:38:33.376Z,78.42
2022-10-18T00:41:38.284Z,78.29
2022-10-18T00:44:41.009Z,78.31
2022-10-18T00:47:48.208Z,78.33
2022-10-18T00:50:53.137Z,78.27
2022-10-18T00:53:55.848Z,78.68
2022-10-18T00:56:59.094Z,78.32
2022-10-18T01:00:02.620Z,78.50
2022-10-18T01:03:06.045Z,78.69
2022-10-18T01:06:09.658Z,78.72
2022-10-18T01:09:32.577Z,79.57
2022-10-18T01:12:56.879Z,79.86
2022-10-18T01:16:17.826Z,79.89
2022-10-18T01:19:46.938Z,79.96
2022-10-18T01:23:04.822Z,80.36
2022-10-18T01:26:29.400Z,80.29
2022-10-18T01:29:57.057Z,79.97
2022-10-18T01:33:11.463Z,80.40
2022-10-18T01:36:29.699Z,79.36
2022-10-18T01:39:38.372Z,78.59
2022-10-18T01:42:41.257Z,78.51
2022-10-18T01:45:44.035Z,78.70
2022-10-18T01:48:47.679Z,78.59
2022-10-18T01:51:50.709Z,77.52
2022-10-18T01:54:55.830Z,77.90
2022-10-18T01:58:28.181Z,78.64
2022-10-18T02:01:49.144Z,78.87
2022-10-18T02:04:59.212Z,79.08
2022-10-18T02:08:22.787Z,79.41
2022-10-18T02:11:29.699Z,80.06
2022-10-18T02:14:33.389Z,80.30
2022-10-18T02:17:37.993Z,80.58
2022-10-18T02:20:42.232Z,82.08
2022-10-18T02:23:46.956Z,82.21
2022-10-18T02:26:50.106Z,83.85
2022-10-18T02:29:53.307Z,84.50
2022-10-18T02:33:04.519Z,84.43
2022-10-18T02:36:18.373Z,84.61
2022-10-18T02:39:29.694Z,84.68
2022-10-18T02:42:37.509Z,84.16
2022-10-18T02:45:40.558Z,83.72
2022-10-18T02:48:43.321Z,83.68
2022-10-18T02:51:46.444Z,83.62
2022-10-18T02:54:49.155Z,83.05
2022-10-18T02:57:52.351Z,83.58
2022-10-18T03:00:58.269Z,83.38
2022-10-18T03:04:02.015Z,83.32
2022-10-18T03:07:04.882Z,83.71
2022-10-18T03:10:08.226Z,83.33
2022-10-18T03:13:11.072Z,83.27
2022-10-18T03:16:13.971Z,83.28
2022-10-18T03:19:16.757Z,83.30
2022-10-18T03:22:19.644Z,83.59
2022-10-18T03:25:22.412Z,84.11
2022-10-18T03:28:25.311Z,84.01
2022-10-18T03:31:28.369Z,83.80
2022-10-18T03:34:31.133Z,81.99
2022-10-18T03:37:34.026Z,81.88
2022-10-18T03:40:37.294Z,81.13
2022-10-18T03:43:40.508Z,81.04
2022-10-18T03:46:43.246Z,81.26
2022-10-18T03:49:46.028Z,81.84
2022-10-18T03:52:48.740Z,81.97
2022-10-18T03:55:53.086Z,81.89
2022-10-18T03:58:57.243Z,82.31
2022-10-18T04:02:00.226Z,83.08
2022-10-18T04:05:03.259Z,83.30
2022-10-18T04:08:06.071Z,83.43
2022-10-18T04:11:10.946Z,83.93
2022-10-18T04:14:13.835Z,83.99
2022-10-18T04:17:16.806Z,84.32
2022-10-18T04:20:20.278Z,83.86
2022-10-18T04:23:23.136Z,83.44
2022-10-18T04:26:26.179Z,83.40
2022-10-18T04:29:28.990Z,82.85
2022-10-18T04:32:31.895Z,82.27
2022-10-18T04:35:34.620Z,82.72
2022-10-18T04:38:37.371Z,83.52
2022-10-18T04:41:40.183Z,83.40
2022-10-18T04:44:43.006Z,83.29
2022-10-18T04:47:45.734Z,83.76
2022-10-18T04:50:49.998Z,83.81
2022-10-18T04:53:52.780Z,84.86
2022-10-18T04:56:55.727Z,85.15
2022-10-18T04:59:58.700Z,84.92
2022-10-18T05:03:01.420Z,85.25
2022-10-18T05:06:05.530Z,85.67
2022-10-18T05:09:08.492Z,86.37
2022-10-18T05:12:11.271Z,86.56
2022-10-18T05:15:14.138Z,87.05
2022-10-18T05:18:17.021Z,87.12
2022-10-18T05:21:19.869Z,86.79
2022-10-18T05:24:25.473Z,87.31
2022-10-18T05:27:30.621Z,86.97
2022-10-18T05:30:33.999Z,87.35
2022-10-18T05:33:37.785Z,87.53
2022-10-18T05:36:40.658Z,86.98
2022-10-18T05:39:43.525Z,86.76
2022-10-18T05:42:46.272Z,87.17
2022-10-18T05:45:50.397Z,87.23
2022-10-18T05:48:53.155Z,86.87
2022-10-18T05:51:58.886Z,86.75
2022-10-18T05:55:03.854Z,86.63
2022-10-18T05:58:06.924Z,85.23
2022-10-18T06:01:11.770Z,83.66
2022-10-18T06:04:14.939Z,82.11
2022-10-18T06:07:17.715Z,82.34
2022-10-18T06:10:23.522Z,81.67
2022-10-18T06:13:26.644Z,81.08
2022-10-18T06:16:32.397Z,80.74
2022-10-18T06:19:39.867Z,80.82
2022-10-18T06:22:43.883Z,80.17
2022-10-18T06:25:46.726Z,79.26
2022-10-18T06:28:50.511Z,78.62
2022-10-18T06:31:53.589Z,78.34
2022-10-18T06:35:03.230Z,76.93
2022-10-18T06:38:06.439Z,73.87
2022-10-18T06:41:10.446Z,64.29
2022-10-18T06:44:14.573Z,56.97
2022-10-18T06:47:17.412Z,53.18
2022-10-18T06:50:20.295Z,49.26
2022-10-18T06:53:25.547Z,47.28
2022-10-18T06:56:28.766Z,44.75
2022-10-18T06:59:31.885Z,42.30
2022-10-18T07:02:35.010Z,40.39
2022-10-18T07:05:38.518Z,38.44
2022-10-18T07:08:44.894Z,37.82
2022-10-18T07:11:48.034Z,36.93
2022-10-18T07:14:50.983Z,32.52
2022-10-18T07:17:53.736Z,35.01
2022-10-18T07:20:57.448Z,32.48
2022-10-18T07:24:00.242Z,31.41
2022-10-18T07:27:03.087Z,32.27
2022-10-18T07:30:07.814Z,31.88
2022-10-18T07:33:11.473Z,29.25
2022-10-18T07:36:15.888Z,28.15
2022-10-18T07:39:19.281Z,27.24
2022-10-18T07:42:22.380Z,26.99
2022-10-18T07:45:25.506Z,26.20
2022-10-18T07:48:28.934Z,25.69
2022-10-18T07:51:33.004Z,24.81
2022-10-18T07:54:35.916Z,24.47
2022-10-18T07:57:38.749Z,24.12
2022-10-18T08:00:42.154Z,24.21
2022-10-18T08:03:45.034Z,25.92
2022-10-18T08:06:47.953Z,28.31
2022-10-18T08:09:50.891Z,25.58
2022-10-18T08:12:54.519Z,24.00
2022-10-18T08:16:06.295Z,23.00
2022-10-18T08:19:09.172Z,23.11
2022-10-18T08:22:11.967Z,23.40
2022-10-18T08:25:15.639Z,22.81
2022-10-18T08:28:18.348Z,23.01
2022-10-18T08:31:21.162Z,23.55
2022-10-18T08:34:24.149Z,23.44
2022-10-18T08:37:27.010Z,23.41
2022-10-18T08:40:34.859Z,22.21
2022-10-18T08:43:47.337Z,22.97
2022-10-18T08:46:53.095Z,24.61
2022-10-18T08:50:07.707Z,21.05
2022-10-18T08:53:21.121Z,21.90
2022-10-18T08:56:27.946Z,21.34
2022-10-18T09:09:41.906Z,22.17
2022-10-18T09:13:55.099Z,21.71
2022-10-18T09:17:27.297Z,19.73
2022-10-18T09:21:00.245Z,19.04
2022-10-18T09:24:17.140Z,20.39
2022-10-18T09:27:22.718Z,20.36
2022-10-18T09:30:49.897Z,19.36
2022-10-18T09:34:06.349Z,20.89
2022-10-18T09:37:16.285Z,19.71
2022-10-18T09:40:26.893Z,19.52
2022-10-18T09:44:00.782Z,18.71
2022-10-18T09:47:16.853Z,20.16
2022-10-18T09:50:28.122Z,19.58
2022-10-18T09:53:37.103Z,19.10
2022-10-18T09:56:47.619Z,18.36
2022-10-18T09:59:55.057Z,17.62
2022-10-18T10:03:00.622Z,20.34
2022-10-18T10:06:16.809Z,19.15
2022-10-18T10:09:26.965Z,20.03
2022-10-18T10:12:32.698Z,18.02
2022-10-18T10:15:38.206Z,16.79
2022-10-18T10:18:43.879Z,17.55
2022-10-18T10:21:50.328Z,17.31
2022-10-18T10:24:54.984Z,16.83
2022-10-18T10:28:20.394Z,16.91
2022-10-18T10:31:46.035Z,16.39
2022-10-18T10:34:49.424Z,17.45
2022-10-18T10:37:54.652Z,16.56
2022-10-18T10:40:59.791Z,18.98
2022-10-18T10:44:08.848Z,17.60
2022-10-18T10:47:33.248Z,17.24
2022-10-18T10:50:54.413Z,16.72
2022-10-18T10:54:05.994Z,17.02
2022-10-18T10:57:12.749Z,16.89
2022-10-18T11:00:34.396Z,15.30
2022-10-18T11:03:37.435Z,15.04
2022-10-18T11:06:55.993Z,18.36
2022-10-18T11:10:12.848Z,15.19
2022-10-18T11:13:31.663Z,17.14
2022-10-18T11:17:07.698Z,16.27
2022-10-18T11:20:23.561Z,15.41
2022-10-18T11:23:32.374Z,15.63
2022-10-18T11:27:01.383Z,16.32
2022-10-18T11:30:35.087Z,18.75
2022-10-18T11:34:10.073Z,18.78
2022-10-18T11:38:06.451Z,21.56
2022-10-18T11:41:31.793Z,17.57
2022-10-18T11:45:02.951Z,16.03
2022-10-18T11:48:06.218Z,16.11
2022-10-18T11:51:34.169Z,16.12
2022-10-18T11:55:05.325Z,16.04
2022-10-18T11:58:18.445Z,15.20
2022-10-18T12:01:33.331Z,14.92
2022-10-18T12:04:53.062Z,16.01
2022-10-18T12:08:47.602Z,14.85
2022-10-18T12:12:02.757Z,14.58
2022-10-18T12:15:20.313Z,16.13
2022-10-18T12:18:30.407Z,14.88
2022-10-18T12:21:34.668Z,17.18
2022-10-18T12:24:38.037Z,15.85
2022-10-18T12:27:49.739Z,17.53
2022-10-18T12:31:27.269Z,17.92
2022-10-18T12:34:43.990Z,15.48
2022-10-18T12:38:00.133Z,15.58
2022-10-18T12:41:04.410Z,16.22
2022-10-18T12:44:25.669Z,15.77
2022-10-18T12:47:30.458Z,17.04
2022-10-18T12:50:37.790Z,18.56
2022-10-18T12:53:42.414Z,17.13
2022-10-18T12:56:47.705Z,15.94
2022-10-18T12:59:50.758Z,19.54
2022-10-18T13:03:19.135Z,17.39
2022-10-18T13:06:23.652Z,16.21
2022-10-18T13:09:30.988Z,18.18
2022-10-18T13:12:58.876Z,18.11
2022-10-18T13:16:24.025Z,17.90
2022-10-18T13:19:32.876Z,17.46
2022-10-18T13:23:08.294Z,18.12
2022-10-18T13:26:26.927Z,17.44
2022-10-18T13:29:40.979Z,19.02
2022-10-18T13:33:08.656Z,18.59
2022-10-18T13:36:22.583Z,18.30
2022-10-18T13:39:27.312Z,17.79
2022-10-18T13:42:33.007Z,18.40
2022-10-18T13:45:54.700Z,18.43
2022-10-18T13:49:06.629Z,19.21
2022-10-18T13:52:27.607Z,18.63
2022-10-18T13:56:11.835Z,20.10
2022-10-18T13:59:37.852Z,20.71
2022-10-18T14:02:58.694Z,19.27
2022-10-18T14:06:10.471Z,19.54
2022-10-18T14:12:50.095Z,19.97
2022-10-18T14:16:00.261Z,22.20
2022-10-18T14:19:15.159Z,23.88
2022-10-18T14:22:54.923Z,22.62
2022-10-18T14:26:15.106Z,21.59
2022-10-18T14:29:20.731Z,21.57
2022-10-18T14:32:29.387Z,25.21
2022-10-18T14:35:35.843Z,28.21
2022-10-18T14:39:06.314Z,30.85
2022-10-18T14:42:20.884Z,31.66
2022-10-18T14:45:24.502Z,31.29
2022-10-18T14:48:27.455Z,31.99
2022-10-18T14:51:35.701Z,33.59
2022-10-18T14:54:38.883Z,33.73
2022-10-18T14:57:41.792Z,34.04
2022-10-18T15:00:48.478Z,34.91
2022-10-18T15:03:57.529Z,35.40
2022-10-18T15:07:06.872Z,35.70
2022-10-18T15:10:35.297Z,36.31
2022-10-18T15:13:48.034Z,37.68
2022-10-18T15:16:54.223Z,37.14
2022-10-18T15:20:06.232Z,37.33
2022-10-18T15:23:24.019Z,37.54
2022-10-18T15:26:30.939Z,38.28
2022-10-18T15:29:36.879Z,38.76
2022-10-18T15:32:49.096Z,39.27
2022-10-18T15:35:54.098Z,40.73
2022-10-18T15:39:18.561Z,42.26
2022-10-18T15:42:38.441Z,44.18
2022-10-18T15:49:18.511Z,44.19
2022-10-18T15:52:37.487Z,44.81
2022-10-18T15:55:45.420Z,47.24
2022-10-18T15:58:49.071Z,47.29
2022-10-18T16:01:52.165Z,48.07
2022-10-18T16:04:55.474Z,48.58
2022-10-18T16:07:58.426Z,50.36
2022-10-18T16:11:01.201Z,50.65
2022-10-18T16:14:03.982Z,51.39
2022-10-18T16:17:07.428Z,52.45
2022-10-18T16:20:20.329Z,54.20
2022-10-18T16:23:26.676Z,54.17
2022-10-18T16:26:29.806Z,55.08
2022-10-18T16:29:33.394Z,56.14
2022-10-18T16:32:36.146Z,56.74
2022-10-18T16:35:38.987Z,57.18
2022-10-18T16:38:42.165Z,58.47
2022-10-18T16:41:45.683Z,58.70
2022-10-18T16:44:49.256Z,59.71
2022-10-18T16:47:52.063Z,61.87
2022-10-18T16:50:56.847Z,61.13
2022-10-18T16:53:59.616Z,62.33
2022-10-18T16:57:02.468Z,62.51
2022-10-18T17:00:05.572Z,62.65
2022-10-18T17:03:10.133Z,62.53
2022-10-18T17:06:22.313Z,62.80
2022-10-18T17:09:25.137Z,63.42
2022-10-18T17:12:28.041Z,64.18
2022-10-18T17:15:32.946Z,64.95
2022-10-18T17:18:37.936Z,65.92
2022-10-18T17:21:40.734Z,66.91
2022-10-18T17:24:43.470Z,67.53
2022-10-18T17:27:46.982Z,68.42
2022-10-18T17:30:56.905Z,68.98
2022-10-18T17:34:02.172Z,70.66
2022-10-18T17:37:05.703Z,70.75
2022-10-18T17:40:09.874Z,71.00
2022-10-18T17:43:14.017Z,70.44
2022-10-18T17:46:18.001Z,69.65
2022-10-18T17:49:22.262Z,69.16
2022-10-18T17:52:25.246Z,69.75
2022-10-18T17:55:30.288Z,70.20
2022-10-18T17:58:33.529Z,70.33
2022-10-18T18:01:36.521Z,71.01
2022-10-18T18:04:39.380Z,70.68
2022-10-18T18:07:42.374Z,70.25
2022-10-18T18:10:45.375Z,70.64
2022-10-18T18:13:48.228Z,70.58
2022-10-18T18:16:51.216Z,70.18
2022-10-18T18:19:54.310Z,70.27
2022-10-18T18:22:57.096Z,71.41
2022-10-18T18:26:00.891Z,70.93
2022-10-18T18:29:04.181Z,71.43
2022-10-18T18:32:08.163Z,71.44
2022-10-18T18:35:11.893Z,72.27
2022-10-18T18:38:14.764Z,71.92
2022-10-18T18:41:23.210Z,72.67
2022-10-18T18:44:26.052Z,73.42
2022-10-18T18:47:28.839Z,74.12
2022-10-18T18:50:32.026Z,74.87
2022-10-18T18:53:35.124Z,75.07
2022-10-18T18:56:38.285Z,75.58
2022-10-18T18:59:41.247Z,76.30
2022-10-18T19:02:44.054Z,76.03
2022-10-18T19:05:46.841Z,76.60
2022-10-18T19:08:50.391Z,76.86
2022-10-18T19:11:55.698Z,77.39
2022-10-18T19:14:58.409Z,78.32
2022-10-18T19:18:01.273Z,77.31
2022-10-18T19:21:04.240Z,77.68
2022-10-18T19:24:07.575Z,77.38
2022-10-18T19:27:14.375Z,77.44
2022-10-18T19:30:19.929Z,77.33
2022-10-18T19:33:41.144Z,77.18
2022-10-18T19:36:48.867Z,76.94
2022-10-18T19:39:51.751Z,76.20
2022-10-18T19:42:54.511Z,75.94
2022-10-18T19:46:02.752Z,75.33
2022-10-18T19:49:05.786Z,75.54
2022-10-18T19:52:08.971Z,74.46
2022-10-18T19:55:11.824Z,74.33
2022-10-18T19:58:14.711Z,74.37
2022-10-18T20:01:18.700Z,74.66
2022-10-18T20:04:21.854Z,74.45
2022-10-18T20:07:24.704Z,74.27
2022-10-18T20:10:31.057Z,74.82
2022-10-18T20:13:34.130Z,75.61
2022-10-18T20:16:37.144Z,75.24
2022-10-18T20:19:40.021Z,76.45
2022-10-18T20:22:42.733Z,76.17
2022-10-18T20:25:58.604Z,75.58
2022-10-18T20:29:01.590Z,75.44
2022-10-18T20:32:04.537Z,75.78
2022-10-18T20:35:07.455Z,76.09
2022-10-18T20:38:10.321Z,75.82
2022-10-18T20:41:22.757Z,75.71
2022-10-18T20:44:27.005Z,75.95
2022-10-18T20:47:30.423Z,76.07
2022-10-18T20:50:33.963Z,76.54
2022-10-18T20:53:37.677Z,76.94
2022-10-18T20:56:40.500Z,77.17
2022-10-18T20:59:43.246Z,77.29
2022-10-18T21:02:46.019Z,77.63
2022-10-18T21:05:48.829Z,77.56
2022-10-18T21:08:57.005Z,77.49
2022-10-18T21:12:00.057Z,76.86
2022-10-18T21:15:02.876Z,76.99
2022-10-18T21:18:06.633Z,77.55
2022-10-18T21:21:16.168Z,77.25
2022-10-18T21:24:20.000Z,78.67
2022-10-18T21:27:25.931Z,78.66
2022-10-18T21:30:29.121Z,78.49
2022-10-18T21:33:31.862Z,79.00
2022-10-18T21:36:36.638Z,79.88
2022-10-18T21:39:39.350Z,80.92
2022-10-18T21:42:42.137Z,81.85
2022-10-18T21:45:44.934Z,83.30
2022-10-18T21:48:51.661Z,81.81
2022-10-18T21:51:54.483Z,82.31
2022-10-18T21:54:57.280Z,81.66
2022-10-18T21:58:00.108Z,81.56
2022-10-18T22:01:23.874Z,81.81
2022-10-18T22:04:26.735Z,81.83
2022-10-18T22:07:29.456Z,81.89
2022-10-18T22:10:33.577Z,81.88
2022-10-18T22:13:36.348Z,81.79
2022-10-18T22:16:39.335Z,81.41
2022-10-18T22:19:43.592Z,81.19
2022-10-18T22:22:46.552Z,81.42
2022-10-18T22:25:50.407Z,81.72
2022-10-18T22:29:02.387Z,81.48
2022-10-18T22:32:05.332Z,80.75
2022-10-18T22:35:08.101Z,81.12
2022-10-18T22:38:10.789Z,81.48
2022-10-18T22:41:13.842Z,81.11
2022-10-18T22:44:16.725Z,81.10
2022-10-18T22:47:19.550Z,81.18
2022-10-18T22:50:23.202Z,81.37
2022-10-18T22:53:27.115Z,81.24
2022-10-18T22:56:30.105Z,81.44
2022-10-18T22:59:33.524Z,81.91
2022-10-18T23:02:36.549Z,81.74
2022-10-18T23:05:41.058Z,81.44
2022-10-18T23:08:43.940Z,81.28
2022-10-18T23:11:48.303Z,81.48
2022-10-18T23:14:51.246Z,81.15
2022-10-18T23:17:55.050Z,81.40
2022-10-18T23:21:07.415Z,80.63
2022-10-18T23:24:10.248Z,80.95
2022-10-18T23:27:13.022Z,80.70
2022-10-18T23:30:25.363Z,81.80
2022-10-18T23:33:28.100Z,81.37
2022-10-18T23:36:33.163Z,81.62
2022-10-18T23:39:35.965Z,81.16
2022-10-18T23:42:38.949Z,80.82
2022-10-18T23:45:42.593Z,81.77
2022-10-18T23:48:46.362Z,81.28
2022-10-18T23:51:49.229Z,81.63
2022-10-18T23:54:51.918Z,82.41
2022-10-18T23:57:54.684Z,82.51
